Besiktas Bosphorus — TCOG3 — position and weather

sailwx.info

Track history (hours):
 
Tides and Currents Weather Stations Pressure Air Temp Water Temp Dewpoint Dewpoint Depression Visibility Wind Speed Wind Dir Waves Ship Positions

Besiktas Bosphorus

Last reported at 2017-Dec-10 13:35 UTC. Time now 2017-Dec-13 01:20 UTC.
Position N 44°10' E 037°24'.

Length 274 m; draft 9.2 m.

Type: Tanker. MMSI: 271000817.

Date/timePositionNaut miles runAvg speedWind from/ knotsBaromVisibWave heightAir tempDewpointWater temp
2017-Dec-10 13:35N 44°10' E 037°24'3 6.4
2017-Dec-10 13:09N 44°12' E 037°22'2 6.5
2017-Dec-10 12:48N 44°15' E 037°21'2 6.7
2017-Dec-10 12:30N 44°16' E 037°22'3 6.1
2017-Dec-10 11:59N 44°19' E 037°20'3 5.8
2017-Dec-10 11:30N 44°22' E 037°20'2 4.1
2017-Dec-10 11:00N 44°24' E 037°20'2 4.1
2017-Dec-10 10:30N 44°26' E 037°20'1 2.5
2017-Dec-10 10:00N 44°26' E 037°22'1 2.4
2017-Dec-10 09:30N 44°25' E 037°22'1 2.4
2017-Dec-10 09:00N 44°24' E 037°22'1 2.4
2017-Dec-10 08:30N 44°23' E 037°21'1 2.4
2017-Dec-10 08:00N 44°21' E 037°21'1 2.5
2017-Dec-10 07:30N 44°20' E 037°21'1 2.5
2017-Dec-10 07:00N 44°19' E 037°21'1 2.5
2017-Dec-10 06:30N 44°18' E 037°20'1 2.5
2017-Dec-10 06:00N 44°16' E 037°20'1 2.5
2017-Dec-10 05:30N 44°15' E 037°20'11 1.2
2017-Dec-09 20:35N 44°20' E 037°33'1 6.6
2017-Dec-09 20:29N 44°21' E 037°34'4 7.4
2017-Dec-09 20:00N 44°24' E 037°34'1 2.6
2017-Dec-09 19:30N 44°25' E 037°33'1 2.0
2017-Dec-09 19:00N 44°24' E 037°32'1 2.0
2017-Dec-09 18:30N 44°23' E 037°32'1 1.9
2017-Dec-09 18:00N 44°23' E 037°31'1 2.4
2017-Dec-09 17:30N 44°21' E 037°31'1 2.1
2017-Dec-09 17:00N 44°21' E 037°30'1 1.8
2017-Dec-09 16:30N 44°20' E 037°30'1 1.9
2017-Dec-09 15:59N 44°19' E 037°29'1 2.0
2017-Dec-09 15:30N 44°18' E 037°29'1 2.0
2017-Dec-09 14:59N 44°17' E 037°28'1 2.0
2017-Dec-09 14:27N 44°16' E 037°28'1 2.0
2017-Dec-09 13:55N 44°15' E 037°28'1 2.1
2017-Dec-09 13:30N 44°14' E 037°28'1 2.1
2017-Dec-09 13:00N 44°13' E 037°27'1 2.0
2017-Dec-09 12:28N 44°12' E 037°27'1 2.0
2017-Dec-09 12:00N 44°11' E 037°26'1 2.3
2017-Dec-09 11:29N 44°10' E 037°25'8 5.1
2017-Dec-09 10:00N 44°17' E 037°31'3 6.0
2017-Dec-09 09:30N 44°19' E 037°32'2635.6
2017-Dec-09 08:47N 44°35' E 038°01'2070.8
2017-Dec-09 08:30N 44°24' E 037°38'1 1.7
2017-Dec-09 08:00N 44°24' E 037°37'1 2.3
2017-Dec-09 07:30N 44°23' E 037°36'1 2.3
2017-Dec-09 07:00N 44°22' E 037°35'1 2.3
2017-Dec-09 06:30N 44°21' E 037°34'1 2.2
2017-Dec-09 06:00N 44°20' E 037°33'1 2.1
2017-Dec-09 05:30N 44°19' E 037°32'1 2.0
2017-Dec-09 04:59N 44°19' E 037°31'1 2.0
2017-Dec-09 04:30N 44°18' E 037°30'1 2.0
2017-Dec-09 03:59N 44°17' E 037°30'19 1.7
2017-Dec-08 16:52N 44°10' E 037°54'2 2.3
2017-Dec-08 16:09N 44°11' E 037°52'1 2.3
2017-Dec-08 15:44N 44°11' E 037°51'3 2.1
2017-Dec-08 14:19N 44°12' E 037°47'1 2.0
2017-Dec-08 13:58N 44°12' E 037°46'2 1.9
2017-Dec-08 13:04N 44°12' E 037°43'0 5.3
2017-Dec-08 13:00N 44°12' E 037°43'4 7.7
2017-Dec-08 12:29N 44°09' E 037°46'4 7.8
2017-Dec-08 12:00N 44°05' E 037°49'9 0.8
2017-Dec-08 00:46N 44°12' E 037°40'2 2.2
2017-Dec-07 23:43N 44°14' E 037°39'1 2.0
2017-Dec-07 23:05N 44°15' E 037°38'0 2.0
2017-Dec-07 23:00N 44°16' E 037°38'1 2.0
2017-Dec-07 22:27N 44°16' E 037°37'1 2.0
2017-Dec-07 21:57N 44°17' E 037°36'2 2.0
2017-Dec-07 21:09N 44°19' E 037°35'0 2.2
2017-Dec-07 21:00N 44°19' E 037°35'1 2.1
2017-Dec-07 20:29N 44°20' E 037°34'1 2.5
2017-Dec-07 19:59N 44°21' E 037°32'2 4.3
2017-Dec-07 19:30N 44°21' E 037°30'4 8.2
2017-Dec-07 18:59N 44°23' E 037°24'5 7.7
2017-Dec-07 18:18N 44°20' E 037°18'  
Track history (hours):
 
Tides and Currents Weather Stations Pressure Air Temp Water Temp Dewpoint Dewpoint Depression Visibility Wind Speed Wind Dir Waves Ship Positions

Besiktas Bosphorus

Last reported at 2017-Dec-10 13:35 UTC. Time now 2017-Dec-13 01:20 UTC.
Position N 44°10' E 037°24'.

Length 274 m; draft 9.2 m.

Type: Tanker. MMSI: 271000817.

Date/timePositionNaut miles runAvg speedWind from/ knotsBaromVisibWave heightAir tempDewpointWater temp
2017-Dec-10 13:35N 44°10' E 037°24'3 6.4
2017-Dec-10 13:09N 44°12' E 037°22'2 6.5
2017-Dec-10 12:48N 44°15' E 037°21'2 6.7
2017-Dec-10 12:30N 44°16' E 037°22'3 6.1
2017-Dec-10 11:59N 44°19' E 037°20'3 5.8
2017-Dec-10 11:30N 44°22' E 037°20'2 4.1
2017-Dec-10 11:00N 44°24' E 037°20'2 4.1
2017-Dec-10 10:30N 44°26' E 037°20'1 2.5
2017-Dec-10 10:00N 44°26' E 037°22'1 2.4
2017-Dec-10 09:30N 44°25' E 037°22'1 2.4
2017-Dec-10 09:00N 44°24' E 037°22'1 2.4
2017-Dec-10 08:30N 44°23' E 037°21'1 2.4
2017-Dec-10 08:00N 44°21' E 037°21'1 2.5
2017-Dec-10 07:30N 44°20' E 037°21'1 2.5
2017-Dec-10 07:00N 44°19' E 037°21'1 2.5
2017-Dec-10 06:30N 44°18' E 037°20'1 2.5
2017-Dec-10 06:00N 44°16' E 037°20'1 2.5
2017-Dec-10 05:30N 44°15' E 037°20'11 1.2
2017-Dec-09 20:35N 44°20' E 037°33'1 6.6
2017-Dec-09 20:29N 44°21' E 037°34'4 7.4
2017-Dec-09 20:00N 44°24' E 037°34'1 2.6
2017-Dec-09 19:30N 44°25' E 037°33'1 2.0
2017-Dec-09 19:00N 44°24' E 037°32'1 2.0
2017-Dec-09 18:30N 44°23' E 037°32'1 1.9
2017-Dec-09 18:00N 44°23' E 037°31'1 2.4
2017-Dec-09 17:30N 44°21' E 037°31'1 2.1
2017-Dec-09 17:00N 44°21' E 037°30'1 1.8
2017-Dec-09 16:30N 44°20' E 037°30'1 1.9
2017-Dec-09 15:59N 44°19' E 037°29'1 2.0
2017-Dec-09 15:30N 44°18' E 037°29'1 2.0
2017-Dec-09 14:59N 44°17' E 037°28'1 2.0
2017-Dec-09 14:27N 44°16' E 037°28'1 2.0
2017-Dec-09 13:55N 44°15' E 037°28'1 2.1
2017-Dec-09 13:30N 44°14' E 037°28'1 2.1
2017-Dec-09 13:00N 44°13' E 037°27'1 2.0
2017-Dec-09 12:28N 44°12' E 037°27'1 2.0
2017-Dec-09 12:00N 44°11' E 037°26'1 2.3
2017-Dec-09 11:29N 44°10' E 037°25'8 5.1
2017-Dec-09 10:00N 44°17' E 037°31'3 6.0
2017-Dec-09 09:30N 44°19' E 037°32'2635.6
2017-Dec-09 08:47N 44°35' E 038°01'2070.8
2017-Dec-09 08:30N 44°24' E 037°38'1 1.7
2017-Dec-09 08:00N 44°24' E 037°37'1 2.3
2017-Dec-09 07:30N 44°23' E 037°36'1 2.3
2017-Dec-09 07:00N 44°22' E 037°35'1 2.3
2017-Dec-09 06:30N 44°21' E 037°34'1 2.2
2017-Dec-09 06:00N 44°20' E 037°33'1 2.1
2017-Dec-09 05:30N 44°19' E 037°32'1 2.0
2017-Dec-09 04:59N 44°19' E 037°31'1 2.0
2017-Dec-09 04:30N 44°18' E 037°30'1 2.0
2017-Dec-09 03:59N 44°17' E 037°30'19 1.7
2017-Dec-08 16:52N 44°10' E 037°54'2 2.3
2017-Dec-08 16:09N 44°11' E 037°52'1 2.3
2017-Dec-08 15:44N 44°11' E 037°51'3 2.1
2017-Dec-08 14:19N 44°12' E 037°47'1 2.0
2017-Dec-08 13:58N 44°12' E 037°46'2 1.9
2017-Dec-08 13:04N 44°12' E 037°43'0 5.3
2017-Dec-08 13:00N 44°12' E 037°43'4 7.7
2017-Dec-08 12:29N 44°09' E 037°46'4 7.8
2017-Dec-08 12:00N 44°05' E 037°49'9 0.8
2017-Dec-08 00:46N 44°12' E 037°40'2 2.2
2017-Dec-07 23:43N 44°14' E 037°39'1 2.0
2017-Dec-07 23:05N 44°15' E 037°38'0 2.0
2017-Dec-07 23:00N 44°16' E 037°38'1 2.0
2017-Dec-07 22:27N 44°16' E 037°37'1 2.0
2017-Dec-07 21:57N 44°17' E 037°36'2 2.0
2017-Dec-07 21:09N 44°19' E 037°35'0 2.2
2017-Dec-07 21:00N 44°19' E 037°35'1 2.1
2017-Dec-07 20:29N 44°20' E 037°34'1 2.5
2017-Dec-07 19:59N 44°21' E 037°32'2 4.3
2017-Dec-07 19:30N 44°21' E 037°30'4 8.2
2017-Dec-07 18:59N 44°23' E 037°24'5 7.7
2017-Dec-07 18:18N 44°20' E 037°18'  

Dump ship's entire track history